createdAt,value
2022-08-04T00:00:05.517Z,100.00
2022-08-04T00:02:56.441Z,100.00
2022-08-04T00:05:48.014Z,100.00
2022-08-04T00:08:30.789Z,100.00
2022-08-04T00:11:00.388Z,100.00
2022-08-04T00:13:31.532Z,100.00
2022-08-04T00:16:03.242Z,100.00
2022-08-04T00:18:58.152Z,100.00
2022-08-04T00:21:26.465Z,100.00
2022-08-04T00:24:10.889Z,100.00
2022-08-04T00:26:40.493Z,100.00
2022-08-04T00:29:07.444Z,100.00
2022-08-04T00:31:56.981Z,100.00
2022-08-04T00:34:22.798Z,100.00
2022-08-04T00:36:50.130Z,100.00
2022-08-04T00:39:19.574Z,100.00
2022-08-04T00:42:15.489Z,100.00
2022-08-04T00:44:48.071Z,100.00
2022-08-04T00:47:52.974Z,100.00
2022-08-04T00:50:30.863Z,100.00
2022-08-04T00:53:13.755Z,100.00
2022-08-04T00:55:43.511Z,100.00
2022-08-04T00:58:43.764Z,100.00
2022-08-04T01:01:40.998Z,100.00
2022-08-04T01:04:25.130Z,100.00
2022-08-04T01:07:22.852Z,100.00
2022-08-04T01:10:15.559Z,100.00
2022-08-04T01:12:44.604Z,100.00
2022-08-04T01:15:56.480Z,100.00
2022-08-04T01:18:59.680Z,100.00
2022-08-04T01:21:29.391Z,100.00
2022-08-04T01:23:55.974Z,100.00
2022-08-04T01:26:42.138Z,100.00
2022-08-04T01:29:32.302Z,100.00
2022-08-04T01:32:32.998Z,100.00
2022-08-04T01:35:08.203Z,100.00
2022-08-04T01:37:57.461Z,100.00
2022-08-04T01:40:27.450Z,100.00
2022-08-04T01:42:55.545Z,100.00
2022-08-04T01:45:25.156Z,100.00
2022-08-04T01:47:54.437Z,100.00
2022-08-04T01:50:22.718Z,100.00
2022-08-04T01:52:53.844Z,100.00
2022-08-04T01:55:21.722Z,100.00
2022-08-04T01:57:52.102Z,100.00
2022-08-04T02:00:29.624Z,100.00
2022-08-04T02:02:57.509Z,100.00
2022-08-04T02:05:26.740Z,100.00
2022-08-04T02:08:45.204Z,100.00
2022-08-04T02:11:23.212Z,100.00
2022-08-04T02:14:08.501Z,100.00
2022-08-04T02:16:53.042Z,100.00
2022-08-04T02:19:53.915Z,100.00
2022-08-04T02:22:22.860Z,100.00
2022-08-04T02:24:57.302Z,100.00
2022-08-04T02:28:00.097Z,100.00
2022-08-04T02:30:19.878Z,100.00
2022-08-04T02:32:49.097Z,100.00
2022-08-04T02:35:26.678Z,100.00
2022-08-04T02:38:06.458Z,100.00
2022-08-04T02:40:33.807Z,100.00
2022-08-04T02:43:04.382Z,100.00
2022-08-04T02:45:36.070Z,100.00
2022-08-04T02:48:28.683Z,100.00
2022-08-04T02:50:54.587Z,100.00
2022-08-04T02:53:23.308Z,100.00
2022-08-04T02:55:52.645Z,100.00
2022-08-04T02:58:26.256Z,100.00
2022-08-04T03:00:53.234Z,100.00
2022-08-04T03:03:29.177Z,100.00
2022-08-04T03:06:13.770Z,100.00
2022-08-04T03:08:58.470Z,100.00
2022-08-04T03:12:02.904Z,100.00
2022-08-04T03:14:29.865Z,100.00
2022-08-04T03:19:47.723Z,100.00
2022-08-04T03:23:06.338Z,100.00
2022-08-04T03:25:37.561Z,100.00
2022-08-04T03:28:42.860Z,100.00
2022-08-04T03:31:33.974Z,100.00
2022-08-04T03:34:07.177Z,100.00
2022-08-04T03:37:03.589Z,100.00
2022-08-04T03:39:49.334Z,100.00
2022-08-04T03:42:28.109Z,100.00
2022-08-04T03:45:23.242Z,100.00
2022-08-04T03:48:11.866Z,100.00
2022-08-04T03:51:35.389Z,100.00
2022-08-04T03:54:48.763Z,100.00
2022-08-04T03:57:30.367Z,100.00
2022-08-04T04:00:09.221Z,100.00
2022-08-04T04:02:56.141Z,100.00
2022-08-04T04:05:25.887Z,100.00
2022-08-04T04:08:19.121Z,100.00
2022-08-04T04:11:20.009Z,100.00
2022-08-04T04:14:01.616Z,100.00
2022-08-04T04:16:50.229Z,100.00
2022-08-04T04:19:41.551Z,100.00
2022-08-04T04:22:43.157Z,100.00
2022-08-04T04:25:18.924Z,100.00
2022-08-04T04:28:44.927Z,100.00
2022-08-04T04:31:33.859Z,100.00
2022-08-04T04:34:37.876Z,100.00
2022-08-04T04:37:23.547Z,100.00
2022-08-04T04:40:05.729Z,100.00
2022-08-04T04:43:06.307Z,100.00
2022-08-04T04:45:49.481Z,100.00
2022-08-04T04:48:51.643Z,100.00
2022-08-04T04:51:31.771Z,100.00
2022-08-04T04:54:13.362Z,100.00
2022-08-04T04:56:59.379Z,100.00
2022-08-04T04:59:33.054Z,100.00
2022-08-04T05:01:59.697Z,100.00
2022-08-04T05:04:52.832Z,100.00
2022-08-04T05:07:41.916Z,100.00
2022-08-04T05:10:08.655Z,100.00
2022-08-04T05:14:32.596Z,100.00
2022-08-04T05:15:42.876Z,100.00
2022-08-04T05:20:48.623Z,100.00
2022-08-04T05:23:29.308Z,100.00
2022-08-04T05:26:07.895Z,100.00
2022-08-04T05:28:41.793Z,100.00
2022-08-04T05:31:16.286Z,100.00
2022-08-04T05:34:00.239Z,100.00
2022-08-04T05:36:55.132Z,100.00
2022-08-04T05:39:31.031Z,100.00
2022-08-04T05:42:04.323Z,100.00
2022-08-04T05:44:34.171Z,100.00
2022-08-04T05:47:04.300Z,100.00
2022-08-04T05:49:33.141Z,100.00
2022-08-04T05:52:02.155Z,100.00
2022-08-04T05:54:31.572Z,100.00
2022-08-04T05:56:59.513Z,100.00
2022-08-04T05:59:27.912Z,100.00
2022-08-04T06:01:58.278Z,100.00
2022-08-04T06:04:31.549Z,100.00
2022-08-04T06:06:58.380Z,100.00
2022-08-04T06:09:25.255Z,100.00
2022-08-04T06:12:01.815Z,100.00
2022-08-04T06:14:39.606Z,100.00
2022-08-04T06:18:33.263Z,100.00
2022-08-04T06:20:18.979Z,100.00
2022-08-04T06:22:46.569Z,100.00
2022-08-04T06:25:18.144Z,100.00
2022-08-04T06:27:45.261Z,100.00
2022-08-04T06:30:14.549Z,100.00
2022-08-04T06:32:48.722Z,100.00
2022-08-04T06:35:19.855Z,100.00
2022-08-04T06:37:47.856Z,100.00
2022-08-04T06:40:30.693Z,100.00
2022-08-04T06:42:59.835Z,100.00
2022-08-04T06:45:27.678Z,100.00
2022-08-04T06:47:54.996Z,100.00
2022-08-04T06:51:26.621Z,100.00
2022-08-04T06:53:10.818Z,100.00
2022-08-04T06:55:38.370Z,100.00
2022-08-04T06:58:06.643Z,100.00
2022-08-04T07:00:35.803Z,100.00
2022-08-04T07:03:03.678Z,100.00
2022-08-04T07:05:31.450Z,100.00
2022-08-04T07:07:59.167Z,100.00
2022-08-04T07:10:28.389Z,100.00
2022-08-04T07:13:00.278Z,100.00
2022-08-04T07:15:28.385Z,100.00
2022-08-04T07:18:02.053Z,100.00
2022-08-04T07:20:34.826Z,100.00
2022-08-04T07:23:06.571Z,100.00
2022-08-04T07:26:00.278Z,100.00
2022-08-04T07:28:28.529Z,100.00
2022-08-04T07:30:56.758Z,100.00
2022-08-04T07:33:24.700Z,100.00
2022-08-04T07:36:05.125Z,100.00
2022-08-04T07:38:48.673Z,100.00
2022-08-04T07:41:40.621Z,100.00
2022-08-04T07:44:09.113Z,100.00
2022-08-04T07:46:39.473Z,100.00
2022-08-04T07:49:07.178Z,100.00
2022-08-04T07:51:35.997Z,100.00
2022-08-04T07:54:05.329Z,100.00
2022-08-04T07:56:35.503Z,100.00
2022-08-04T07:59:02.661Z,100.00
2022-08-04T08:01:30.464Z,100.00
2022-08-04T08:03:58.837Z,100.00
2022-08-04T08:06:33.048Z,100.00
2022-08-04T08:09:02.176Z,100.00
2022-08-04T08:12:36.981Z,100.00
2022-08-04T08:14:28.922Z,100.00
2022-08-04T08:16:55.980Z,100.00
2022-08-04T08:19:22.910Z,100.00
2022-08-04T08:21:59.570Z,100.00
2022-08-04T08:24:31.862Z,100.00
2022-08-04T08:27:00.683Z,100.00
2022-08-04T08:29:29.715Z,100.00
2022-08-04T08:32:01.452Z,100.00
2022-08-04T08:34:33.125Z,100.00
2022-08-04T08:37:07.955Z,100.00
2022-08-04T08:40:00.002Z,97.91
2022-08-04T08:42:42.616Z,97.38
2022-08-04T08:45:33.955Z,96.50
2022-08-04T08:48:29.064Z,93.54
2022-08-04T08:51:49.503Z,93.46
2022-08-04T08:54:51.618Z,92.16
2022-08-04T08:57:21.355Z,92.51
2022-08-04T09:00:03.407Z,91.00
2022-08-04T09:03:04.828Z,89.33
2022-08-04T09:05:50.808Z,88.76
2022-08-04T09:08:30.419Z,85.56
2022-08-04T09:11:08.971Z,87.62
2022-08-04T09:13:50.324Z,87.45
2022-08-04T09:16:22.167Z,85.27
2022-08-04T09:19:03.606Z,83.09
2022-08-04T09:21:37.676Z,82.56
2022-08-04T09:24:36.599Z,83.75
2022-08-04T09:27:14.542Z,83.65
2022-08-04T09:29:53.521Z,85.16
2022-08-04T09:32:47.474Z,81.74
2022-08-04T09:35:40.455Z,81.80
2022-08-04T09:38:29.500Z,81.36
2022-08-04T09:41:20.796Z,79.03
2022-08-04T09:44:49.242Z,77.34
2022-08-04T09:47:40.206Z,75.19
2022-08-04T09:50:26.311Z,72.73
2022-08-04T09:53:03.624Z,72.68
2022-08-04T09:55:53.630Z,73.51
2022-08-04T09:58:47.187Z,74.68
2022-08-04T10:01:26.449Z,69.83
2022-08-04T10:03:56.566Z,68.66
2022-08-04T10:06:47.782Z,65.95
2022-08-04T10:09:45.614Z,64.47
2022-08-04T10:12:24.685Z,60.36
2022-08-04T10:15:03.705Z,58.58
2022-08-04T10:17:51.781Z,58.91
2022-08-04T10:20:52.707Z,56.75
2022-08-04T10:23:59.950Z,57.07
2022-08-04T10:26:48.293Z,55.06
2022-08-04T10:29:22.807Z,54.67
2022-08-04T10:32:02.630Z,51.78
2022-08-04T10:34:41.240Z,49.95
2022-08-04T10:37:59.326Z,47.48
2022-08-04T10:40:38.440Z,48.18
2022-08-04T10:43:37.080Z,45.92
2022-08-04T10:46:18.623Z,42.81
2022-08-04T10:49:01.441Z,42.65
2022-08-04T10:52:03.462Z,41.38
2022-08-04T10:54:48.444Z,42.19
2022-08-04T10:57:48.576Z,42.92
2022-08-04T11:00:22.017Z,43.55
2022-08-04T11:03:04.030Z,43.97
2022-08-04T11:05:43.729Z,45.06
2022-08-04T11:08:24.220Z,45.27
2022-08-04T11:11:13.160Z,46.30
2022-08-04T11:13:52.854Z,46.63
2022-08-04T11:16:46.473Z,48.51
2022-08-04T11:19:44.912Z,51.02
2022-08-04T11:22:23.461Z,50.32
2022-08-04T11:24:56.794Z,46.94
2022-08-04T11:27:35.866Z,45.89
2022-08-04T11:30:13.654Z,44.55
2022-08-04T11:32:49.665Z,44.74
2022-08-04T11:35:31.156Z,43.05
2022-08-04T11:38:37.044Z,43.42
2022-08-04T11:41:11.111Z,42.78
2022-08-04T11:44:01.934Z,42.90
2022-08-04T11:46:43.746Z,40.35
2022-08-04T11:49:28.430Z,41.05
2022-08-04T11:51:58.777Z,40.77
2022-08-04T11:54:25.594Z,40.28
2022-08-04T11:56:53.061Z,40.38
2022-08-04T11:59:23.799Z,40.18
2022-08-04T12:02:27.006Z,40.78
2022-08-04T12:05:01.527Z,40.82
2022-08-04T12:07:37.520Z,41.31
2022-08-04T12:10:45.510Z,41.76
2022-08-04T12:13:44.116Z,41.71
2022-08-04T12:16:20.708Z,42.24
2022-08-04T12:18:58.394Z,43.55
2022-08-04T12:21:29.836Z,44.75
2022-08-04T12:24:17.877Z,46.50
2022-08-04T12:27:09.777Z,48.45
2022-08-04T12:29:39.968Z,47.61
2022-08-04T12:32:19.045Z,46.90
2022-08-04T12:35:20.910Z,49.06
2022-08-04T12:38:07.934Z,51.24
2022-08-04T12:40:50.957Z,52.16
2022-08-04T12:43:28.056Z,53.23
2022-08-04T12:46:00.878Z,54.61
2022-08-04T12:48:29.319Z,58.20
2022-08-04T12:50:58.792Z,60.29
2022-08-04T12:53:50.851Z,63.93
2022-08-04T12:56:27.375Z,68.27
2022-08-04T12:59:02.564Z,79.98
2022-08-04T13:02:08.981Z,87.14
2022-08-04T13:04:29.181Z,95.42
2022-08-04T13:07:19.682Z,100.00
2022-08-04T13:09:48.071Z,100.00
2022-08-04T13:12:19.351Z,100.00
2022-08-04T13:14:50.851Z,100.00
2022-08-04T13:17:17.880Z,100.00
2022-08-04T13:19:53.229Z,100.00
2022-08-04T13:22:27.143Z,100.00
2022-08-04T13:24:56.675Z,100.00
2022-08-04T13:27:48.308Z,100.00
2022-08-04T13:30:22.630Z,100.00
2022-08-04T13:32:58.691Z,100.00
2022-08-04T13:35:55.264Z,100.00
2022-08-04T13:38:16.907Z,100.00
2022-08-04T13:40:45.518Z,100.00
2022-08-04T13:44:16.249Z,100.00
2022-08-04T13:46:27.940Z,100.00
2022-08-04T13:49:26.057Z,100.00
2022-08-04T13:51:59.920Z,100.00
2022-08-04T13:54:42.646Z,100.00
2022-08-04T13:57:19.168Z,100.00
2022-08-04T13:59:52.160Z,100.00
2022-08-04T14:02:41.985Z,100.00
2022-08-04T14:05:35.103Z,100.00
2022-08-04T14:08:06.860Z,100.00
2022-08-04T14:10:35.715Z,100.00
2022-08-04T14:13:05.380Z,100.00
2022-08-04T14:16:01.374Z,99.21
2022-08-04T14:18:34.594Z,98.04
2022-08-04T14:21:12.605Z,97.03
2022-08-04T14:23:50.882Z,95.88
2022-08-04T14:26:33.329Z,94.49
2022-08-04T14:29:28.180Z,94.48
2022-08-04T14:32:03.185Z,94.46
2022-08-04T14:34:31.280Z,89.92
2022-08-04T14:37:17.459Z,84.06
2022-08-04T14:40:17.751Z,76.48
2022-08-04T14:42:54.619Z,68.50
2022-08-04T14:46:03.822Z,65.88
2022-08-04T14:48:30.633Z,64.86
2022-08-04T14:50:58.085Z,64.04
2022-08-04T14:53:26.590Z,63.27
2022-08-04T14:55:57.099Z,62.75
2022-08-04T14:58:37.507Z,61.38
2022-08-04T15:01:11.711Z,65.43
2022-08-04T15:03:50.119Z,70.26
2022-08-04T15:06:22.654Z,72.63
2022-08-04T15:08:51.986Z,70.88
2022-08-04T15:11:23.141Z,72.45
2022-08-04T15:13:51.824Z,72.04
2022-08-04T15:16:19.713Z,74.76
2022-08-04T15:18:49.587Z,77.91
2022-08-04T15:21:17.843Z,79.58
2022-08-04T15:23:44.799Z,83.63
2022-08-04T15:26:22.518Z,87.60
2022-08-04T15:28:54.261Z,93.54
2022-08-04T15:32:07.814Z,95.34
2022-08-04T15:34:11.296Z,97.42
2022-08-04T15:36:57.219Z,97.99
2022-08-04T15:40:00.057Z,98.96
2022-08-04T15:42:39.089Z,100.00
2022-08-04T15:45:16.804Z,100.00
2022-08-04T15:47:49.978Z,100.00
2022-08-04T15:50:28.266Z,100.00
2022-08-04T15:53:00.735Z,100.00
2022-08-04T15:55:42.907Z,100.00
2022-08-04T15:58:15.201Z,100.00
2022-08-04T16:00:48.120Z,100.00
2022-08-04T16:03:58.415Z,100.00
2022-08-04T16:06:22.812Z,100.00
2022-08-04T16:08:57.926Z,100.00
2022-08-04T16:11:30.837Z,100.00
2022-08-04T16:14:05.444Z,100.00
2022-08-04T16:16:47.148Z,100.00
2022-08-04T16:19:21.329Z,100.00
2022-08-04T16:21:50.538Z,100.00
2022-08-04T16:24:40.409Z,100.00
2022-08-04T16:27:08.883Z,100.00
2022-08-04T16:29:42.931Z,100.00
2022-08-04T16:32:11.684Z,100.00
2022-08-04T16:34:49.631Z,100.00
2022-08-04T16:37:24.721Z,100.00
2022-08-04T16:40:34.607Z,100.00
2022-08-04T16:43:06.182Z,100.00
2022-08-04T16:45:47.657Z,100.00
2022-08-04T16:48:36.149Z,100.00
2022-08-04T16:51:10.071Z,100.00
2022-08-04T16:54:03.709Z,100.00
2022-08-04T16:56:33.038Z,100.00
2022-08-04T16:59:06.294Z,100.00
2022-08-04T17:01:34.495Z,100.00
2022-08-04T17:04:06.265Z,100.00
2022-08-04T17:06:36.943Z,100.00
2022-08-04T17:09:28.427Z,100.00
2022-08-04T17:11:57.373Z,100.00
2022-08-04T17:14:29.450Z,100.00
2022-08-04T17:17:00.298Z,100.00
2022-08-04T17:19:27.339Z,100.00
2022-08-04T17:22:02.841Z,100.00
2022-08-04T17:24:32.503Z,100.00
2022-08-04T17:26:59.466Z,100.00
2022-08-04T17:29:42.960Z,100.00
2022-08-04T17:32:21.636Z,100.00
2022-08-04T17:34:54.187Z,100.00
2022-08-04T17:37:38.221Z,100.00
2022-08-04T17:40:10.301Z,100.00
2022-08-04T17:42:40.011Z,100.00
2022-08-04T17:47:59.666Z,100.00
2022-08-04T17:50:28.016Z,100.00
2022-08-04T17:53:00.575Z,100.00
2022-08-04T17:55:39.306Z,100.00
2022-08-04T17:58:20.558Z,100.00
2022-08-04T18:01:10.679Z,100.00
2022-08-04T18:03:53.340Z,100.00
2022-08-04T18:06:25.372Z,100.00
2022-08-04T18:09:23.002Z,100.00
2022-08-04T18:12:05.943Z,100.00
2022-08-04T18:14:49.417Z,100.00
2022-08-04T18:18:21.992Z,100.00
2022-08-04T18:20:26.506Z,100.00
2022-08-04T18:22:53.680Z,100.00
2022-08-04T18:25:22.095Z,100.00
2022-08-04T18:28:13.858Z,100.00
2022-08-04T18:30:54.834Z,100.00
2022-08-04T18:33:40.367Z,100.00
2022-08-04T18:36:34.779Z,100.00
2022-08-04T18:38:59.156Z,100.00
2022-08-04T18:41:27.988Z,100.00
2022-08-04T18:43:58.367Z,100.00
2022-08-04T18:46:26.842Z,100.00
2022-08-04T18:51:48.845Z,100.00
2022-08-04T18:54:15.909Z,100.00
2022-08-04T18:57:05.229Z,100.00
2022-08-04T18:59:29.599Z,100.00
2022-08-04T19:02:16.515Z,100.00
2022-08-04T19:04:43.939Z,100.00
2022-08-04T19:07:28.664Z,100.00
2022-08-04T19:09:59.397Z,100.00
2022-08-04T19:12:28.455Z,100.00
2022-08-04T19:14:58.821Z,100.00
2022-08-04T19:17:59.924Z,100.00
2022-08-04T19:20:24.985Z,100.00
2022-08-04T19:24:27.131Z,100.00
2022-08-04T19:25:58.637Z,100.00
2022-08-04T19:28:31.690Z,100.00
2022-08-04T19:31:01.650Z,100.00
2022-08-04T19:33:55.333Z,100.00
2022-08-04T19:39:09.418Z,100.00
2022-08-04T19:42:06.159Z,100.00
2022-08-04T19:44:29.930Z,100.00
2022-08-04T19:47:00.883Z,100.00
2022-08-04T19:50:05.001Z,100.00
2022-08-04T19:52:34.349Z,100.00
2022-08-04T19:55:10.710Z,100.00
2022-08-04T19:57:46.493Z,100.00
2022-08-04T20:00:18.012Z,100.00
2022-08-04T20:03:02.734Z,100.00
2022-08-04T20:05:52.576Z,100.00
2022-08-04T20:08:17.596Z,100.00
2022-08-04T20:10:51.384Z,100.00
2022-08-04T20:13:19.303Z,100.00
2022-08-04T20:15:58.027Z,100.00
2022-08-04T20:18:35.545Z,100.00
2022-08-04T20:21:04.243Z,100.00
2022-08-04T20:23:50.027Z,100.00
2022-08-04T20:26:17.248Z,100.00
2022-08-04T20:28:45.751Z,100.00
2022-08-04T20:31:18.239Z,100.00
2022-08-04T20:33:49.188Z,100.00
2022-08-04T20:36:20.523Z,100.00
2022-08-04T20:38:51.931Z,100.00
2022-08-04T20:41:21.060Z,100.00
2022-08-04T20:43:49.711Z,100.00
2022-08-04T20:46:29.133Z,100.00
2022-08-04T20:48:59.906Z,100.00
2022-08-04T20:51:31.904Z,100.00
2022-08-04T20:54:01.070Z,100.00
2022-08-04T20:56:30.265Z,100.00
2022-08-04T20:59:00.123Z,100.00
2022-08-04T21:01:29.938Z,100.00
2022-08-04T21:04:27.230Z,100.00
2022-08-04T21:06:57.152Z,100.00
2022-08-04T21:09:37.280Z,100.00
2022-08-04T21:12:06.081Z,100.00
2022-08-04T21:14:32.943Z,100.00
2022-08-04T21:17:00.281Z,100.00
2022-08-04T21:19:28.275Z,100.00
2022-08-04T21:21:55.190Z,100.00
2022-08-04T21:24:26.288Z,100.00
2022-08-04T21:26:56.881Z,100.00
2022-08-04T21:29:34.737Z,100.00
2022-08-04T21:32:05.967Z,100.00
2022-08-04T21:34:39.482Z,100.00
2022-08-04T21:37:11.397Z,100.00
2022-08-04T21:39:50.022Z,100.00
2022-08-04T21:42:30.172Z,100.00
2022-08-04T21:44:57.905Z,100.00
2022-08-04T21:47:25.438Z,100.00
2022-08-04T21:49:56.100Z,100.00
2022-08-04T21:52:24.608Z,100.00
2022-08-04T21:54:54.303Z,100.00
2022-08-04T21:57:24.847Z,100.00
2022-08-04T21:59:52.646Z,100.00
2022-08-04T22:02:19.604Z,100.00
2022-08-04T22:04:48.456Z,100.00
2022-08-04T22:07:16.427Z,100.00
2022-08-04T22:10:02.503Z,100.00
2022-08-04T22:12:30.887Z,100.00
2022-08-04T22:15:00.810Z,100.00
2022-08-04T22:17:35.204Z,100.00
2022-08-04T22:20:05.754Z,100.00
2022-08-04T22:22:37.816Z,100.00
2022-08-04T22:25:13.345Z,100.00
2022-08-04T22:28:00.922Z,100.00
2022-08-04T22:30:29.328Z,100.00
2022-08-04T22:33:00.216Z,100.00
2022-08-04T22:35:36.544Z,100.00
2022-08-04T22:38:24.210Z,100.00
2022-08-04T22:41:05.212Z,100.00
2022-08-04T22:43:34.700Z,100.00
2022-08-04T22:46:07.177Z,100.00
2022-08-04T22:48:38.072Z,100.00
2022-08-04T22:51:07.050Z,100.00
2022-08-04T22:56:09.700Z,100.00
2022-08-04T22:58:40.230Z,100.00
2022-08-04T23:01:08.643Z,100.00
2022-08-04T23:03:38.307Z,100.00
2022-08-04T23:06:11.727Z,100.00
2022-08-04T23:08:43.259Z,100.00
2022-08-04T23:11:13.617Z,100.00
2022-08-04T23:13:41.813Z,100.00
2022-08-04T23:16:09.877Z,100.00
2022-08-04T23:18:41.871Z,100.00
2022-08-04T23:21:10.198Z,100.00
2022-08-04T23:23:45.185Z,100.00
2022-08-04T23:26:13.337Z,100.00
2022-08-04T23:28:40.779Z,100.00
2022-08-04T23:31:10.018Z,100.00
2022-08-04T23:33:50.557Z,100.00
2022-08-04T23:36:29.695Z,100.00
2022-08-04T23:39:03.678Z,100.00
2022-08-04T23:41:54.366Z,100.00
2022-08-04T23:44:24.789Z,100.00
2022-08-04T23:47:01.081Z,100.00
2022-08-04T23:49:44.723Z,100.00
2022-08-04T23:52:28.053Z,100.00
2022-08-04T23:55:00.404Z,100.00
2022-08-04T23:57:31.215Z,100.00
